createdAt,value
2023-02-22T00:00:36.740Z,36.03
2023-02-22T00:01:19.428Z,33.20
2023-02-22T00:01:51.654Z,32.77
2023-02-22T00:02:29.158Z,32.90
2023-02-22T00:03:00.921Z,31.90
2023-02-22T00:03:32.821Z,33.40
2023-02-22T00:04:06.839Z,36.83
2023-02-22T00:04:42.431Z,38.07
2023-02-22T00:05:16.917Z,39.57
2023-02-22T00:05:48.645Z,40.67
2023-02-22T00:06:25.114Z,39.53
2023-02-22T00:07:01.299Z,42.00
2023-02-22T00:07:33.797Z,43.67
2023-02-22T00:08:09.383Z,44.33
2023-02-22T00:08:41.097Z,43.50
2023-02-22T00:09:13.839Z,40.60
2023-02-22T00:09:45.633Z,43.33
2023-02-22T00:10:20.457Z,44.57
2023-02-22T00:10:52.152Z,45.97
2023-02-22T00:11:23.855Z,46.73
2023-02-22T00:11:55.533Z,44.67
2023-02-22T00:12:29.318Z,43.20
2023-02-22T00:13:00.996Z,42.00
2023-02-22T00:13:32.661Z,41.50
2023-02-22T00:14:04.529Z,42.30
2023-02-22T00:14:36.211Z,39.83
2023-02-22T00:15:08.984Z,40.20
2023-02-22T00:15:41.558Z,40.60
2023-02-22T00:16:21.973Z,41.40
2023-02-22T00:16:56.291Z,41.33
2023-02-22T00:17:30.516Z,39.00
2023-02-22T00:18:04.717Z,38.73
2023-02-22T00:18:37.898Z,39.43
2023-02-22T00:19:10.612Z,39.50
2023-02-22T00:19:42.286Z,39.53
2023-02-22T00:20:18.751Z,41.37
2023-02-22T00:20:50.537Z,39.47
2023-02-22T00:21:22.775Z,39.17
2023-02-22T00:21:54.520Z,37.50
2023-02-22T00:22:26.269Z,37.43
2023-02-22T00:22:57.999Z,38.93
2023-02-22T00:23:31.960Z,39.50
2023-02-22T00:24:22.827Z,38.07
2023-02-22T00:24:55.435Z,38.97
2023-02-22T00:25:27.101Z,36.60
2023-02-22T00:26:01.193Z,36.87
2023-02-22T00:26:33.938Z,36.97
2023-02-22T00:27:05.635Z,32.63
2023-02-22T00:27:37.382Z,34.83
2023-02-22T00:28:09.053Z,35.60
2023-02-22T00:28:42.498Z,37.30
2023-02-22T00:29:14.255Z,37.43
2023-02-22T00:29:47.273Z,36.70
2023-02-22T00:30:26.757Z,36.63
2023-02-22T00:30:59.982Z,36.60
2023-02-22T00:31:31.779Z,36.90
2023-02-22T00:32:03.719Z,36.47
2023-02-22T00:32:35.920Z,35.93
2023-02-22T00:33:07.665Z,37.40
2023-02-22T00:33:40.583Z,36.40
2023-02-22T00:34:14.046Z,36.00
2023-02-22T00:34:45.806Z,35.57
2023-02-22T00:35:20.351Z,36.70
2023-02-22T00:35:52.228Z,36.90
2023-02-22T00:36:23.927Z,35.33
2023-02-22T00:36:55.647Z,37.30
2023-02-22T00:37:31.863Z,37.23
2023-02-22T00:38:04.394Z,35.43
2023-02-22T00:38:36.174Z,34.73
2023-02-22T00:39:09.941Z,35.30
2023-02-22T00:39:41.601Z,34.97
2023-02-22T00:40:18.129Z,34.30
2023-02-22T00:40:49.867Z,33.63
2023-02-22T00:41:21.617Z,33.07
2023-02-22T00:41:53.402Z,32.67
2023-02-22T00:42:25.237Z,35.00
2023-02-22T00:43:02.471Z,34.90
2023-02-22T00:43:34.968Z,37.53
2023-02-22T00:44:06.652Z,36.73
2023-02-22T00:44:38.739Z,33.80
2023-02-22T00:45:10.446Z,35.03
2023-02-22T00:45:42.417Z,35.70
2023-02-22T00:46:15.170Z,36.67
2023-02-22T00:46:46.938Z,36.13
2023-02-22T00:47:18.812Z,37.30
2023-02-22T00:47:51.512Z,36.63
2023-02-22T00:48:23.402Z,37.13
2023-02-22T00:48:55.126Z,38.33
2023-02-22T00:49:26.829Z,37.20
2023-02-22T00:49:58.778Z,37.97
2023-02-22T00:50:32.172Z,36.63
2023-02-22T00:51:04.232Z,35.47
2023-02-22T00:51:35.981Z,36.27
2023-02-22T00:52:09.149Z,35.07
2023-02-22T00:52:40.840Z,35.07
2023-02-22T00:53:12.585Z,35.57
2023-02-22T00:53:44.891Z,36.37
2023-02-22T00:54:20.097Z,37.57
2023-02-22T00:54:51.794Z,37.53
2023-02-22T00:55:27.854Z,37.00
2023-02-22T00:55:59.581Z,38.53
2023-02-22T00:56:34.500Z,38.57
2023-02-22T00:57:06.274Z,37.73
2023-02-22T00:57:38.310Z,38.10
2023-02-22T00:58:10.080Z,37.40
2023-02-22T00:58:41.752Z,36.17
2023-02-22T00:59:13.425Z,36.43
2023-02-22T00:59:45.144Z,34.10
2023-02-22T01:00:45.742Z,35.90
2023-02-22T01:01:17.657Z,34.97
2023-02-22T01:01:49.653Z,36.93
2023-02-22T01:02:21.364Z,37.00
2023-02-22T01:02:54.239Z,36.10
2023-02-22T01:03:25.977Z,36.60
2023-02-22T01:03:57.911Z,35.20
2023-02-22T01:04:29.880Z,35.10
2023-02-22T01:05:01.638Z,35.70
2023-02-22T01:05:33.715Z,36.80
2023-02-22T01:06:05.803Z,36.03
2023-02-22T01:06:37.729Z,35.43
2023-02-22T01:07:09.634Z,35.20
2023-02-22T01:07:41.404Z,36.07
2023-02-22T01:08:15.679Z,35.80
2023-02-22T01:08:48.898Z,34.07
2023-02-22T01:09:21.660Z,34.23
2023-02-22T01:09:53.726Z,34.20
2023-02-22T01:10:28.295Z,33.70
2023-02-22T01:11:01.007Z,34.47
2023-02-22T01:11:32.724Z,35.50
2023-02-22T01:12:04.752Z,33.60
2023-02-22T01:12:36.897Z,32.90
2023-02-22T01:13:12.311Z,32.70
2023-02-22T01:13:47.449Z,33.00
2023-02-22T01:14:21.148Z,33.30
2023-02-22T01:14:57.003Z,32.87
2023-02-22T01:15:30.848Z,33.17
2023-02-22T01:16:03.304Z,32.40
2023-02-22T01:16:35.522Z,32.67
2023-02-22T01:17:07.208Z,32.87
2023-02-22T01:17:40.237Z,33.63
2023-02-22T01:18:12.975Z,32.93
2023-02-22T01:18:44.743Z,32.23
2023-02-22T01:19:17.079Z,32.00
2023-02-22T01:19:48.844Z,32.20
2023-02-22T01:20:26.149Z,33.33
2023-02-22T01:20:57.870Z,33.17
2023-02-22T01:21:29.667Z,33.23
2023-02-22T01:22:01.427Z,32.30
2023-02-22T01:22:33.390Z,32.93
2023-02-22T01:23:08.148Z,31.80
2023-02-22T01:23:39.916Z,31.27
2023-02-22T01:24:16.370Z,33.13
2023-02-22T01:24:49.951Z,33.23
2023-02-22T01:25:24.990Z,34.00
2023-02-22T01:25:57.279Z,33.07
2023-02-22T01:26:28.984Z,33.10
2023-02-22T01:27:02.581Z,31.80
2023-02-22T01:27:38.740Z,32.63
2023-02-22T01:28:10.577Z,33.17
2023-02-22T01:28:42.255Z,32.97
2023-02-22T01:29:15.817Z,33.30
2023-02-22T01:29:50.175Z,31.20
2023-02-22T01:30:25.796Z,32.60
2023-02-22T01:30:58.055Z,33.20
2023-02-22T01:31:29.972Z,32.73
2023-02-22T01:32:01.825Z,31.60
2023-02-22T01:32:33.792Z,32.33
2023-02-22T01:33:07.583Z,32.33
2023-02-22T01:33:41.426Z,32.43
2023-02-22T01:34:13.175Z,31.87
2023-02-22T01:34:47.224Z,30.70
2023-02-22T01:35:24.872Z,32.23
2023-02-22T01:35:56.681Z,31.60
2023-02-22T01:36:28.330Z,31.20
2023-02-22T01:37:01.848Z,32.50
2023-02-22T01:37:33.525Z,32.60
2023-02-22T01:38:05.207Z,32.77
2023-02-22T01:38:38.193Z,32.37
2023-02-22T01:39:12.753Z,31.33
2023-02-22T01:39:44.561Z,31.87
2023-02-22T01:40:26.489Z,31.37
2023-02-22T01:40:58.177Z,30.60
2023-02-22T01:41:29.842Z,31.77
2023-02-22T01:42:01.820Z,31.57
2023-02-22T01:42:33.900Z,31.70
2023-02-22T01:43:16.726Z,33.13
2023-02-22T01:43:48.570Z,33.03
2023-02-22T01:44:31.096Z,33.23
2023-02-22T01:45:30.847Z,34.17
2023-02-22T01:46:05.742Z,33.23
2023-02-22T01:46:37.469Z,32.60
2023-02-22T01:47:09.216Z,33.07
2023-02-22T01:47:41.405Z,33.00
2023-02-22T01:48:16.928Z,32.73
2023-02-22T01:49:03.111Z,33.23
2023-02-22T01:49:48.149Z,33.80
2023-02-22T01:50:20.041Z,34.90
2023-02-22T01:51:13.082Z,35.90
2023-02-22T01:51:50.638Z,35.63
2023-02-22T01:52:22.888Z,35.47
2023-02-22T01:52:55.467Z,34.50
2023-02-22T01:53:34.885Z,35.13
2023-02-22T01:54:18.400Z,34.53
2023-02-22T01:54:55.822Z,33.33
2023-02-22T01:55:28.652Z,34.77
2023-02-22T01:56:01.572Z,33.93
2023-02-22T01:56:37.791Z,33.93
2023-02-22T01:57:22.115Z,34.00
2023-02-22T01:57:54.184Z,35.33
2023-02-22T01:58:30.430Z,35.67
2023-02-22T01:59:10.006Z,35.17
2023-02-22T01:59:46.928Z,36.13
2023-02-22T02:00:21.490Z,34.90
2023-02-22T02:00:53.579Z,32.37
2023-02-22T02:01:26.537Z,32.67
2023-02-22T02:01:58.319Z,32.43
2023-02-22T02:02:30.029Z,32.97
2023-02-22T02:03:18.239Z,32.23
2023-02-22T02:03:53.011Z,32.17
2023-02-22T02:04:26.198Z,32.47
2023-02-22T02:04:59.455Z,32.00
2023-02-22T02:05:34.354Z,31.80
2023-02-22T02:06:12.442Z,32.07
2023-02-22T02:06:45.687Z,32.37
2023-02-22T02:07:21.518Z,31.57
2023-02-22T02:07:54.153Z,30.87
2023-02-22T02:08:37.004Z,31.80
2023-02-22T02:09:50.028Z,34.43
2023-02-22T02:10:24.348Z,35.37
2023-02-22T02:10:58.121Z,35.60
2023-02-22T02:11:31.232Z,35.83
2023-02-22T02:12:06.511Z,35.00
2023-02-22T02:12:38.222Z,35.10
2023-02-22T02:13:10.728Z,34.73
2023-02-22T02:13:42.534Z,36.80
2023-02-22T02:14:15.305Z,37.97
2023-02-22T02:14:47.008Z,37.80
2023-02-22T02:15:31.189Z,34.97
2023-02-22T02:16:03.041Z,35.17
2023-02-22T02:16:50.696Z,35.20
2023-02-22T02:17:23.727Z,35.53
2023-02-22T02:18:05.540Z,37.93
2023-02-22T02:18:37.340Z,39.20
2023-02-22T02:19:46.741Z,39.47
2023-02-22T02:20:28.401Z,36.57
2023-02-22T02:21:28.915Z,35.50
2023-02-22T02:22:19.261Z,35.50
2023-02-22T02:23:17.006Z,35.10
2023-02-22T02:24:12.965Z,36.03
2023-02-22T02:25:18.147Z,34.20
2023-02-22T02:26:31.525Z,34.77
2023-02-22T02:27:13.341Z,34.27
2023-02-22T02:28:22.904Z,33.83
2023-02-22T02:29:00.471Z,34.23
2023-02-22T02:29:34.915Z,34.43
2023-02-22T02:30:24.641Z,35.53
2023-02-22T02:31:15.367Z,37.10
2023-02-22T02:32:12.167Z,36.27
2023-02-22T02:33:18.527Z,34.67
2023-02-22T02:34:07.670Z,33.87
2023-02-22T02:34:39.286Z,34.93
2023-02-22T02:35:21.610Z,36.20
2023-02-22T02:36:12.820Z,36.23
2023-02-22T02:36:59.102Z,35.00
2023-02-22T02:37:49.232Z,34.87
2023-02-22T02:38:44.189Z,35.73
2023-02-22T02:39:35.833Z,33.80
2023-02-22T02:40:17.951Z,34.90
2023-02-22T02:40:57.076Z,35.70
2023-02-22T02:41:45.455Z,34.23
2023-02-22T02:42:22.671Z,33.60
2023-02-22T02:42:58.324Z,35.10
2023-02-22T02:43:37.769Z,36.13
2023-02-22T02:44:17.027Z,35.53
2023-02-22T02:45:11.644Z,35.13
2023-02-22T02:45:55.202Z,34.77
2023-02-22T02:46:34.902Z,34.27
2023-02-22T02:47:14.766Z,34.60
2023-02-22T02:47:53.848Z,34.80
2023-02-22T02:48:28.990Z,35.47
2023-02-22T02:49:15.581Z,35.17
2023-02-22T02:50:13.469Z,34.17
2023-02-22T02:50:48.748Z,34.97
2023-02-22T02:51:24.844Z,34.97
2023-02-22T02:51:58.633Z,33.87
2023-02-22T02:52:34.824Z,34.27
2023-02-22T02:53:09.063Z,33.50
2023-02-22T02:53:46.478Z,35.00
2023-02-22T02:54:19.742Z,34.77
2023-02-22T02:54:53.619Z,35.17
2023-02-22T02:55:25.711Z,34.70
2023-02-22T02:55:59.788Z,34.60
2023-02-22T02:56:32.073Z,34.40
2023-02-22T02:57:04.632Z,35.00
2023-02-22T02:57:36.335Z,33.83
2023-02-22T02:58:08.955Z,34.90
2023-02-22T02:58:51.009Z,35.47
2023-02-22T02:59:34.827Z,33.67
2023-02-22T03:00:24.067Z,33.93
2023-02-22T03:01:01.502Z,34.13
2023-02-22T03:01:45.284Z,34.03
2023-02-22T03:02:35.501Z,34.43
2023-02-22T03:03:37.496Z,34.83
2023-02-22T03:04:22.959Z,35.40
2023-02-22T03:05:15.905Z,35.23
2023-02-22T03:06:13.383Z,33.83
2023-02-22T03:07:22.412Z,33.83
2023-02-22T03:08:03.121Z,30.80
2023-02-22T03:08:40.092Z,31.30
2023-02-22T03:09:37.654Z,32.13
2023-02-22T03:10:37.968Z,32.67
2023-02-22T03:11:23.509Z,34.93
2023-02-22T03:12:32.166Z,33.63
2023-02-22T03:13:16.160Z,32.33
2023-02-22T03:14:15.805Z,33.17
2023-02-22T03:15:02.905Z,35.77
2023-02-22T03:15:43.348Z,33.60
2023-02-22T03:16:52.200Z,35.70
2023-02-22T03:17:37.183Z,33.93
2023-02-22T03:18:33.219Z,34.63
2023-02-22T03:19:29.782Z,33.40
2023-02-22T03:20:15.020Z,33.93
2023-02-22T03:20:55.574Z,34.80
2023-02-22T03:21:55.736Z,35.20
2023-02-22T03:22:44.191Z,35.63
2023-02-22T03:24:08.202Z,37.57
2023-02-22T03:24:53.165Z,37.20
2023-02-22T03:25:34.170Z,34.43
2023-02-22T03:26:14.685Z,35.00
2023-02-22T03:27:02.900Z,35.23
2023-02-22T03:27:43.565Z,36.27
2023-02-22T03:28:19.006Z,36.37
2023-02-22T03:28:54.211Z,34.77
2023-02-22T03:29:35.547Z,35.07
2023-02-22T03:30:13.808Z,34.87
2023-02-22T03:30:52.882Z,34.50
2023-02-22T03:31:37.268Z,35.23
2023-02-22T03:32:15.875Z,33.97
2023-02-22T03:32:54.340Z,35.03
2023-02-22T03:33:52.728Z,36.00
2023-02-22T03:34:32.733Z,38.17
2023-02-22T03:35:11.100Z,36.70
2023-02-22T03:35:57.024Z,36.60
2023-02-22T03:36:39.226Z,34.67
2023-02-22T03:37:26.298Z,34.20
2023-02-22T03:38:04.728Z,34.63
2023-02-22T03:38:38.641Z,33.80
2023-02-22T03:39:16.828Z,35.93
2023-02-22T03:39:53.039Z,36.47
2023-02-22T03:40:33.285Z,35.23
2023-02-22T03:41:08.983Z,38.17
2023-02-22T03:41:41.272Z,36.20
2023-02-22T03:42:21.066Z,34.10
2023-02-22T03:42:59.403Z,33.17
2023-02-22T03:43:48.824Z,33.53
2023-02-22T03:44:27.181Z,33.40
2023-02-22T03:45:04.712Z,33.43
2023-02-22T03:45:43.507Z,33.43
2023-02-22T03:46:19.524Z,33.27
2023-02-22T03:46:56.883Z,33.43
2023-02-22T03:47:37.459Z,33.83
2023-02-22T03:48:16.979Z,34.40
2023-02-22T03:49:00.543Z,31.83
2023-02-22T03:49:36.392Z,30.77
2023-02-22T03:50:12.733Z,31.60
2023-02-22T03:50:44.579Z,32.07
2023-02-22T03:51:18.929Z,31.00
2023-02-22T03:51:51.410Z,32.07
2023-02-22T03:52:23.969Z,32.60
2023-02-22T03:52:59.119Z,31.83
2023-02-22T03:53:34.442Z,31.80
2023-02-22T03:54:07.164Z,30.87
2023-02-22T03:54:40.411Z,31.33
2023-02-22T03:55:13.917Z,32.57
2023-02-22T03:55:51.676Z,32.97
2023-02-22T03:56:35.744Z,32.50
2023-02-22T03:57:19.184Z,32.37
2023-02-22T03:57:58.762Z,29.90
2023-02-22T03:58:34.685Z,28.90
2023-02-22T03:59:10.052Z,28.33
2023-02-22T03:59:42.231Z,27.50
2023-02-22T04:00:20.232Z,27.80
2023-02-22T04:00:53.464Z,28.30
2023-02-22T04:01:25.236Z,28.50
2023-02-22T04:01:57.383Z,27.43
2023-02-22T04:02:29.108Z,26.83
2023-02-22T04:03:02.070Z,28.23
2023-02-22T04:03:33.781Z,28.07
2023-02-22T04:04:06.025Z,28.10
2023-02-22T04:04:38.048Z,27.70
2023-02-22T04:05:09.852Z,28.57
2023-02-22T04:05:41.572Z,27.20
2023-02-22T04:06:13.355Z,28.43
2023-02-22T04:06:45.485Z,28.33
2023-02-22T04:07:17.487Z,27.10
2023-02-22T04:07:49.630Z,27.17
2023-02-22T04:08:21.398Z,28.17
2023-02-22T04:08:53.107Z,28.37
2023-02-22T04:09:24.887Z,28.00
2023-02-22T04:09:56.574Z,27.50
2023-02-22T04:10:28.321Z,28.30
2023-02-22T04:11:01.444Z,28.93
2023-02-22T04:11:33.174Z,29.13
2023-02-22T04:12:05.664Z,28.43
2023-02-22T04:12:37.844Z,29.20
2023-02-22T04:13:10.756Z,27.73
2023-02-22T04:13:42.423Z,27.67
2023-02-22T04:14:14.248Z,29.30
2023-02-22T04:14:45.922Z,30.57
2023-02-22T04:15:22.023Z,31.43
2023-02-22T04:15:54.138Z,31.30
2023-02-22T04:16:25.878Z,31.37
2023-02-22T04:16:57.586Z,29.63
2023-02-22T04:17:29.289Z,30.17
2023-02-22T04:18:01.022Z,33.07
2023-02-22T04:18:32.726Z,33.00
2023-02-22T04:19:04.438Z,32.50
2023-02-22T04:19:36.359Z,33.40
2023-02-22T04:20:08.480Z,32.70
2023-02-22T04:20:40.131Z,32.33
2023-02-22T04:21:11.896Z,32.67
2023-02-22T04:21:43.593Z,34.73
2023-02-22T04:22:15.339Z,34.73
2023-02-22T04:22:47.494Z,34.67
2023-02-22T04:23:19.262Z,32.53
2023-02-22T04:23:51.351Z,33.80
2023-02-22T04:24:23.069Z,33.53
2023-02-22T04:24:54.852Z,35.53
2023-02-22T04:25:26.729Z,35.63
2023-02-22T04:25:58.453Z,36.23
2023-02-22T04:26:30.225Z,35.43
2023-02-22T04:27:02.000Z,34.97
2023-02-22T04:27:34.485Z,35.20
2023-02-22T04:28:06.252Z,35.97
2023-02-22T04:28:37.957Z,35.63
2023-02-22T04:29:09.730Z,36.53
2023-02-22T04:29:41.813Z,34.67
2023-02-22T04:30:13.700Z,34.20
2023-02-22T04:30:45.970Z,34.10
2023-02-22T04:31:18.343Z,35.67
2023-02-22T04:31:50.553Z,35.13
2023-02-22T04:32:22.383Z,34.40
2023-02-22T04:32:54.215Z,33.67
2023-02-22T04:33:25.962Z,35.17
2023-02-22T04:33:57.706Z,34.73
2023-02-22T04:34:29.491Z,36.03
2023-02-22T04:35:01.210Z,35.53
2023-02-22T04:35:35.413Z,35.60
2023-02-22T04:36:07.838Z,36.20
2023-02-22T04:36:42.378Z,35.87
2023-02-22T04:37:14.220Z,37.30
2023-02-22T04:37:45.922Z,35.80
2023-02-22T04:38:17.910Z,32.80
2023-02-22T04:38:49.600Z,31.60
2023-02-22T04:39:21.827Z,31.70
2023-02-22T04:39:53.539Z,30.57
2023-02-22T04:40:25.226Z,32.03
2023-02-22T04:40:56.993Z,31.60
2023-02-22T04:41:28.698Z,30.87
2023-02-22T04:42:00.592Z,30.23
2023-02-22T04:42:32.321Z,30.27
2023-02-22T04:43:04.046Z,29.90
2023-02-22T04:43:35.773Z,29.23
2023-02-22T04:44:07.845Z,27.40
2023-02-22T04:44:39.549Z,28.43
2023-02-22T04:45:11.412Z,27.97
2023-02-22T04:45:43.102Z,29.30
2023-02-22T04:46:14.925Z,27.97
2023-02-22T04:46:47.003Z,28.37
2023-02-22T04:47:18.874Z,28.17
2023-02-22T04:47:50.597Z,27.00
2023-02-22T04:48:22.280Z,26.73
2023-02-22T04:48:54.811Z,27.00
2023-02-22T04:49:26.576Z,27.77
2023-02-22T04:50:00.433Z,27.30
2023-02-22T04:50:32.180Z,25.03
2023-02-22T04:51:04.175Z,26.10
2023-02-22T04:51:36.935Z,27.30
2023-02-22T04:52:08.726Z,25.97
2023-02-22T04:52:40.821Z,26.20
2023-02-22T04:53:14.785Z,26.23
2023-02-22T04:53:47.047Z,27.80
2023-02-22T04:54:19.695Z,27.57
2023-02-22T04:54:51.562Z,27.53
2023-02-22T04:55:23.464Z,27.10
2023-02-22T04:55:55.648Z,26.40
2023-02-22T04:56:32.924Z,25.97
2023-02-22T04:57:04.782Z,26.27
2023-02-22T04:57:36.606Z,27.20
2023-02-22T04:58:09.597Z,26.20
2023-02-22T04:58:42.450Z,25.63
2023-02-22T04:59:14.399Z,27.27
2023-02-22T04:59:46.103Z,26.30
2023-02-22T05:00:21.870Z,26.80
2023-02-22T05:00:54.099Z,26.23
2023-02-22T05:01:25.828Z,28.13
2023-02-22T05:01:57.561Z,28.33
2023-02-22T05:02:29.248Z,28.13
2023-02-22T05:03:01.071Z,27.23
2023-02-22T05:03:32.769Z,28.13
2023-02-22T05:04:06.776Z,27.87
2023-02-22T05:04:39.003Z,28.57
2023-02-22T05:05:11.271Z,30.83
2023-02-22T05:05:43.978Z,32.70
2023-02-22T05:06:17.836Z,30.93
2023-02-22T05:06:49.626Z,31.27
2023-02-22T05:07:21.425Z,31.43
2023-02-22T05:07:53.377Z,31.30
2023-02-22T05:08:25.183Z,31.73
2023-02-22T05:08:56.987Z,32.40
2023-02-22T05:09:28.879Z,33.90
2023-02-22T05:10:03.019Z,38.07
2023-02-22T05:10:34.817Z,38.77
2023-02-22T05:11:06.710Z,39.17
2023-02-22T05:11:38.563Z,39.03
2023-02-22T05:12:10.237Z,37.63
2023-02-22T05:12:42.031Z,42.90
2023-02-22T05:13:13.748Z,128.03
2023-02-22T05:13:45.496Z,111.13
2023-02-22T05:14:17.202Z,63.57
2023-02-22T05:14:48.933Z,104.17
2023-02-22T05:15:23.118Z,123.37
2023-02-22T05:15:54.941Z,170.20
2023-02-22T05:16:26.781Z,100.60
2023-02-22T05:16:59.106Z,95.40
2023-02-22T05:17:30.857Z,95.40
2023-02-22T05:18:02.652Z,65.77
2023-02-22T05:18:34.461Z,168.57
2023-02-22T05:19:06.303Z,86.57
2023-02-22T05:19:38.214Z,72.50
2023-02-22T05:20:29.736Z,66.00
2023-02-22T05:21:01.495Z,55.63
2023-02-22T05:21:33.601Z,51.50
2023-02-22T05:22:05.765Z,50.23
2023-02-22T05:22:37.455Z,47.70
2023-02-22T05:23:09.232Z,44.10
2023-02-22T05:23:41.720Z,44.03
2023-02-22T05:24:13.392Z,43.57
2023-02-22T05:24:45.079Z,42.57
2023-02-22T05:25:16.774Z,42.40
2023-02-22T05:25:48.534Z,41.73
2023-02-22T05:26:20.250Z,41.90
2023-02-22T05:26:53.407Z,43.23
2023-02-22T05:27:25.464Z,44.13
2023-02-22T05:27:59.674Z,44.23
2023-02-22T05:28:32.413Z,44.47
2023-02-22T05:29:04.232Z,45.73
2023-02-22T05:29:38.640Z,75.67
2023-02-22T05:30:11.931Z,157.73
2023-02-22T05:30:43.846Z,162.03
2023-02-22T05:31:16.051Z,266.07
2023-02-22T05:31:48.113Z,99.97
2023-02-22T05:32:19.971Z,123.40
2023-02-22T05:32:52.576Z,149.73
2023-02-22T05:33:24.283Z,173.50
2023-02-22T05:33:55.998Z,295.60
2023-02-22T05:34:27.714Z,337.27
2023-02-22T05:34:59.434Z,154.17
2023-02-22T05:35:31.147Z,143.63
2023-02-22T05:36:02.935Z,84.77
2023-02-22T05:36:34.781Z,69.67
2023-02-22T05:37:06.455Z,54.83
2023-02-22T05:37:38.893Z,51.93
2023-02-22T05:38:15.123Z,47.83
2023-02-22T05:38:46.844Z,44.77
2023-02-22T05:39:18.570Z,44.90
2023-02-22T05:39:53.457Z,43.80
2023-02-22T05:40:27.868Z,41.93
2023-02-22T05:40:59.530Z,41.07
2023-02-22T05:41:31.319Z,39.50
2023-02-22T05:42:03.064Z,37.53
2023-02-22T05:42:37.504Z,39.80
2023-02-22T05:43:09.854Z,39.37
2023-02-22T05:43:41.845Z,37.63
2023-02-22T05:44:13.753Z,37.27
2023-02-22T05:44:45.637Z,35.93
2023-02-22T05:45:20.857Z,37.93
2023-02-22T05:45:52.614Z,36.40
2023-02-22T05:46:25.229Z,35.70
2023-02-22T05:46:57.078Z,38.10
2023-02-22T05:47:28.807Z,37.30
2023-02-22T05:48:01.049Z,36.90
2023-02-22T05:48:33.242Z,37.57
2023-02-22T05:49:05.438Z,36.27
2023-02-22T05:49:37.141Z,37.27
2023-02-22T05:50:09.960Z,35.67
2023-02-22T05:50:41.692Z,36.27
2023-02-22T05:51:13.551Z,42.60
2023-02-22T05:51:45.265Z,38.83
2023-02-22T05:52:17.025Z,37.43
2023-02-22T05:52:49.384Z,36.33
2023-02-22T05:53:21.102Z,35.57
2023-02-22T05:53:52.850Z,35.87
2023-02-22T05:54:24.542Z,36.40
2023-02-22T05:54:56.225Z,37.10
2023-02-22T05:55:28.114Z,37.17
2023-02-22T05:55:59.871Z,36.23
2023-02-22T05:56:31.680Z,35.77
2023-02-22T05:57:03.680Z,36.37
2023-02-22T05:57:35.640Z,35.83
2023-02-22T05:58:07.377Z,36.27
2023-02-22T05:58:39.078Z,35.07
2023-02-22T05:59:10.806Z,35.40
2023-02-22T05:59:43.154Z,36.27
2023-02-22T06:00:27.472Z,35.63
2023-02-22T06:01:00.731Z,35.53
2023-02-22T06:01:33.312Z,36.17
2023-02-22T06:02:05.101Z,35.80
2023-02-22T06:02:36.956Z,37.03
2023-02-22T06:03:12.560Z,36.70
2023-02-22T06:03:47.930Z,35.77
2023-02-22T06:04:20.233Z,34.33
2023-02-22T06:04:52.227Z,36.50
2023-02-22T06:05:24.435Z,35.73
2023-02-22T06:05:56.234Z,36.57
2023-02-22T06:06:27.957Z,36.23
2023-02-22T06:06:59.765Z,35.27
2023-02-22T06:07:31.502Z,35.20
2023-02-22T06:08:04.366Z,35.40
2023-02-22T06:08:36.606Z,35.67
2023-02-22T06:09:08.681Z,35.30
2023-02-22T06:09:40.937Z,34.50
2023-02-22T06:10:14.019Z,35.00
2023-02-22T06:10:45.810Z,34.73
2023-02-22T06:11:19.753Z,34.00
2023-02-22T06:11:54.517Z,34.87
2023-02-22T06:12:27.165Z,32.67
2023-02-22T06:13:00.308Z,34.47
2023-02-22T06:13:32.018Z,35.97
2023-02-22T06:14:03.765Z,36.20
2023-02-22T06:14:36.208Z,57.20
2023-02-22T06:15:08.040Z,41.47
2023-02-22T06:15:39.739Z,36.37
2023-02-22T06:16:11.513Z,36.97
2023-02-22T06:16:43.746Z,35.53
2023-02-22T06:17:19.295Z,35.30
2023-02-22T06:17:53.356Z,36.27
2023-02-22T06:18:26.816Z,36.97
2023-02-22T06:19:00.231Z,37.03
2023-02-22T06:19:32.176Z,35.87
2023-02-22T06:20:04.103Z,36.10
2023-02-22T06:20:35.877Z,36.90
2023-02-22T06:21:08.928Z,36.27
2023-02-22T06:21:42.137Z,35.60
2023-02-22T06:22:18.980Z,36.20
2023-02-22T06:22:52.942Z,36.03
2023-02-22T06:23:25.825Z,35.13
2023-02-22T06:23:57.489Z,35.37
2023-02-22T06:24:29.237Z,35.57
2023-02-22T06:25:03.722Z,35.67
2023-02-22T06:25:36.233Z,35.77
2023-02-22T06:26:07.972Z,35.13
2023-02-22T06:26:39.646Z,34.53
2023-02-22T06:27:11.635Z,35.47
2023-02-22T06:27:43.553Z,36.43
2023-02-22T06:28:15.870Z,36.60
2023-02-22T06:28:47.580Z,36.70
2023-02-22T06:29:19.291Z,36.87
2023-02-22T06:29:51.022Z,36.97
2023-02-22T06:30:25.196Z,38.20
2023-02-22T06:30:56.967Z,38.00
2023-02-22T06:31:28.679Z,37.53
2023-02-22T06:32:00.422Z,36.07
2023-02-22T06:32:32.329Z,37.17
2023-02-22T06:33:04.075Z,36.27
2023-02-22T06:33:35.732Z,37.13
2023-02-22T06:34:07.508Z,36.30
2023-02-22T06:34:41.035Z,35.57
2023-02-22T06:35:12.821Z,36.10
2023-02-22T06:35:45.332Z,36.83
2023-02-22T06:36:20.107Z,37.17
2023-02-22T06:36:51.873Z,35.43
2023-02-22T06:37:23.585Z,37.17
2023-02-22T06:37:55.260Z,38.80
2023-02-22T06:38:27.905Z,39.07
2023-02-22T06:38:59.728Z,40.07
2023-02-22T06:39:31.405Z,40.43
2023-02-22T06:40:05.693Z,39.07
2023-02-22T06:40:37.806Z,37.97
2023-02-22T06:41:10.017Z,39.47
2023-02-22T06:41:43.837Z,39.30
2023-02-22T06:42:15.806Z,38.93
2023-02-22T06:42:49.144Z,39.20
2023-02-22T06:43:21.951Z,37.97
2023-02-22T06:43:53.630Z,40.23
2023-02-22T06:44:25.330Z,40.97
2023-02-22T06:44:57.046Z,41.47
2023-02-22T06:45:28.880Z,40.27
2023-02-22T06:46:00.743Z,40.20
2023-02-22T06:46:32.927Z,39.73
2023-02-22T06:47:53.610Z,41.73
2023-02-22T06:48:25.417Z,43.20
2023-02-22T06:48:59.528Z,45.87
2023-02-22T06:49:31.194Z,46.23
2023-02-22T06:50:02.999Z,50.70
2023-02-22T06:50:35.935Z,55.17
2023-02-22T06:51:10.892Z,51.63
2023-02-22T06:51:43.374Z,50.70
2023-02-22T06:52:15.065Z,51.07
2023-02-22T06:52:47.987Z,51.60
2023-02-22T06:53:19.637Z,49.73
2023-02-22T06:53:51.479Z,50.67
2023-02-22T06:54:24.261Z,51.03
2023-02-22T06:54:55.993Z,50.90
2023-02-22T06:55:30.273Z,51.17
2023-02-22T06:56:02.502Z,51.70
2023-02-22T06:56:34.203Z,51.80
2023-02-22T06:57:05.909Z,51.63
2023-02-22T06:57:37.705Z,51.57
2023-02-22T06:58:09.613Z,52.23
2023-02-22T06:58:41.351Z,50.93
2023-02-22T06:59:13.197Z,51.60
2023-02-22T06:59:45.218Z,52.07
2023-02-22T07:00:23.390Z,52.47
2023-02-22T07:00:55.241Z,50.17
2023-02-22T07:01:26.943Z,49.70
2023-02-22T07:01:59.355Z,50.23
2023-02-22T07:02:31.047Z,49.73
2023-02-22T07:03:04.768Z,48.60
2023-02-22T07:03:36.866Z,50.13
2023-02-22T07:04:09.632Z,49.73
2023-02-22T07:04:43.532Z,52.00
2023-02-22T07:05:17.255Z,51.73
2023-02-22T07:05:48.961Z,50.87
2023-02-22T07:06:20.723Z,50.97
2023-02-22T07:06:52.394Z,49.83
2023-02-22T07:07:25.366Z,50.90
2023-02-22T07:08:05.429Z,52.27
2023-02-22T07:08:37.458Z,51.93
2023-02-22T07:09:09.174Z,51.73
2023-02-22T07:09:40.893Z,52.17
2023-02-22T07:10:27.771Z,49.53
2023-02-22T07:10:59.637Z,49.27
2023-02-22T07:11:31.568Z,50.10
2023-02-22T07:12:03.641Z,50.53
2023-02-22T07:12:35.863Z,49.10
2023-02-22T07:13:08.855Z,50.03
2023-02-22T07:13:41.583Z,51.57
2023-02-22T07:14:19.026Z,49.80
2023-02-22T07:14:54.481Z,51.87
2023-02-22T07:15:28.118Z,51.27
2023-02-22T07:16:00.919Z,52.10
2023-02-22T07:16:33.794Z,54.63
2023-02-22T07:17:05.547Z,55.37
2023-02-22T07:17:37.309Z,56.73
2023-02-22T07:18:09.210Z,57.30
2023-02-22T07:18:40.934Z,57.20
2023-02-22T07:19:12.587Z,57.27
2023-02-22T07:19:44.259Z,58.13
2023-02-22T07:20:16.906Z,57.60
2023-02-22T07:20:48.661Z,56.87
2023-02-22T07:21:20.456Z,55.80
2023-02-22T07:21:59.234Z,58.33
2023-02-22T07:22:31.125Z,57.97
2023-02-22T07:23:02.992Z,56.30
2023-02-22T07:23:35.145Z,55.23
2023-02-22T07:24:07.198Z,55.23
2023-02-22T07:24:40.793Z,56.13
2023-02-22T07:25:12.926Z,57.07
2023-02-22T07:25:44.803Z,55.03
2023-02-22T07:26:16.507Z,53.60
2023-02-22T07:26:48.234Z,54.33
2023-02-22T07:27:19.923Z,53.90
2023-02-22T07:27:53.049Z,53.80
2023-02-22T07:28:24.790Z,53.67
2023-02-22T07:28:56.520Z,52.27
2023-02-22T07:29:28.215Z,51.13
2023-02-22T07:29:59.907Z,50.50
2023-02-22T07:30:34.567Z,51.70
2023-02-22T07:31:06.475Z,50.33
2023-02-22T07:31:39.582Z,50.53
2023-02-22T07:32:18.090Z,50.73
2023-02-22T07:32:50.905Z,48.80